Time;durP1;ratioP1;P1;durP2;ratioP2;P2;SDS_P1;SDS_P2;PMS_P1;PMS_P2;Temp;Humidity;BMP_temperature;BMP_pressure;BME280_temperature;BME280_humidity;BME280_pressure;Samples;Min_cycle;Max_cycle;Signal;HPM_P1;HPM_P2
2021/07/26 00:01:14;;;;;;;6.88;3.08;;;20.40;80.50;;;;;;5081253;28;20019;-73
2021/07/26 00:03:40;;;;;;;5.88;2.88;;;20.50;80.50;;;;;;5093124;28;20092;-74
2021/07/26 00:06:05;;;;;;;5.40;2.58;;;20.50;81.70;;;;;;5091507;28;20477;-73
2021/07/26 00:08:31;;;;;;;5.00;2.50;;;20.50;80.20;;;;;;5092534;28;20035;-73
2021/07/26 00:11:00;;;;;;;6.10;2.55;;;20.50;78.80;;;;;;5086197;28;20392;-73
2021/07/26 00:13:26;;;;;;;5.03;2.65;;;20.50;78.60;;;;;;5072771;28;20486;-73
2021/07/26 00:15:51;;;;;;;6.35;3.00;;;20.50;80.40;;;;;;5084637;28;20164;-73
2021/07/26 00:18:17;;;;;;;5.13;2.60;;;20.20;84.80;;;;;;5092910;28;20012;-74
2021/07/26 00:20:42;;;;;;;4.97;2.42;;;20.20;82.70;;;;;;5092536;28;20500;-73
2021/07/26 00:23:08;;;;;;;6.90;2.92;;;20.30;84.80;;;;;;5092383;28;20020;-74
2021/07/26 00:25:33;;;;;;;5.50;2.63;;;20.10;85.40;;;;;;5092087;28;20036;-73
2021/07/26 00:27:59;;;;;;;5.35;3.05;;;20.00;85.80;;;;;;5092642;28;20028;-73
2021/07/26 00:30:24;;;;;;;6.20;2.50;;;19.90;86.20;;;;;;5091142;28;20481;-73
2021/07/26 00:32:50;;;;;;;6.00;2.75;;;20.00;83.60;;;;;;5091547;28;20036;-73
2021/07/26 00:35:15;;;;;;;5.82;2.70;;;19.90;85.60;;;;;;5080732;28;20028;-73
2021/07/26 00:37:41;;;;;;;6.20;2.97;;;19.70;87.50;;;;;;5091967;28;20536;-73
2021/07/26 00:40:09;;;;;;;3.95;2.30;;;19.60;86.80;;;;;;5089942;28;20040;-73
2021/07/26 00:42:36;;;;;;;5.47;2.63;;;19.60;85.00;;;;;;5091666;28;20031;-73
2021/07/26 00:45:02;;;;;;;5.07;2.53;;;19.70;86.10;;;;;;5090505;28;20027;-73
2021/07/26 00:47:27;;;;;;;4.35;2.25;;;19.70;86.80;;;;;;5080932;28;20032;-73
2021/07/26 00:49:53;;;;;;;4.57;2.55;;;19.80;85.80;;;;;;5090623;28;20051;-73
2021/07/26 00:52:19;;;;;;;6.47;2.97;;;19.70;86.20;;;;;;5091655;28;20032;-73
2021/07/26 00:54:45;;;;;;;5.85;3.15;;;19.60;86.40;;;;;;5090753;28;20063;-74
2021/07/26 00:57:12;;;;;;;5.82;3.13;;;19.60;87.90;;;;;;5092004;28;20031;-73
2021/07/26 00:59:37;;;;;;;7.65;3.35;;;19.60;89.40;;;;;;5091825;28;20031;-73
2021/07/26 01:02:03;;;;;;;7.63;3.83;;;19.40;90.00;;;;;;5091483;28;20024;-73
2021/07/26 01:04:29;;;;;;;7.68;3.35;;;19.40;90.50;;;;;;5091227;28;20024;-72
2021/07/26 01:06:55;;;;;;;6.63;3.70;;;19.40;90.90;;;;;;5090016;28;20523;-74
2021/07/26 01:09:20;;;;;;;6.70;3.88;;;19.40;90.90;;;;;;5091754;28;20102;-74
2021/07/26 01:11:46;;;;;;;6.10;3.40;;;19.60;90.70;;;;;;5091659;28;20107;-73
2021/07/26 01:14:15;;;;;;;7.03;3.45;;;19.60;90.70;;;;;;5091924;28;20039;-74
2021/07/26 01:16:44;;;;;;;7.53;3.97;;;19.50;91.10;;;;;;5091346;28;20035;-73
2021/07/26 01:19:10;;;;;;;7.45;3.80;;;19.50;91.50;;;;;;5091912;28;20024;-73
2021/07/26 01:21:36;;;;;;;6.65;3.95;;;19.50;91.60;;;;;;5091665;28;20020;-73
2021/07/26 01:24:02;;;;;;;7.28;4.07;;;19.40;91.90;;;;;;5091617;28;20039;-74
2021/07/26 01:26:29;;;;;;;5.53;3.17;;;19.40;92.00;;;;;;5090169;28;20077;-74
2021/07/26 01:28:58;;;;;;;6.97;4.20;;;19.50;92.10;;;;;;5091796;28;20032;-73
2021/07/26 01:31:24;;;;;;;8.35;4.10;;;19.50;92.00;;;;;;5090538;28;20486;-73
2021/07/26 01:33:51;;;;;;;7.50;4.00;;;19.50;91.90;;;;;;5091417;28;20032;-73
2021/07/26 01:36:18;;;;;;;8.23;4.13;;;19.40;92.50;;;;;;5089728;28;20501;-74
2021/07/26 01:38:45;;;;;;;6.97;4.10;;;19.40;92.50;;;;;;5089564;28;20032;-74
2021/07/26 01:41:12;;;;;;;11.75;4.57;;;19.50;92.60;;;;;;5090804;28;20081;-74
2021/07/26 01:43:50;;;;;;;7.00;4.22;;;19.50;92.60;;;;;;5090648;28;20034;-73
2021/07/26 01:46:24;;;;;;;7.05;4.55;;;19.50;92.80;;;;;;5090759;28;20099;-73
2021/07/26 01:49:00;;;;;;;8.02;4.70;;;19.40;93.00;;;;;;5091507;28;20420;-73
2021/07/26 01:51:43;;;;;;;7.25;4.38;;;19.40;92.90;;;;;;5093298;28;20024;-74
2021/07/26 01:54:10;;;;;;;8.88;4.63;;;19.40;93.20;;;;;;5095587;28;20547;-75
2021/07/26 01:56:36;;;;;;;9.77;4.40;;;19.20;93.30;;;;;;5094838;28;20024;-73
2021/07/26 01:59:02;;;;;;;8.27;4.72;;;19.20;93.40;;;;;;5095660;28;20385;-73
2021/07/26 02:01:28;;;;;;;8.70;5.00;;;19.20;93.40;;;;;;5093688;28;20129;-73
2021/07/26 02:03:55;;;;;;;6.88;4.10;;;19.20;93.40;;;;;;5094140;28;20538;-73
2021/07/26 02:06:21;;;;;;;8.95;4.20;;;19.20;93.20;;;;;;5094778;28;20085;-73
2021/07/26 02:08:46;;;;;;;8.68;3.85;;;19.40;92.90;;;;;;5092426;28;20907;-71
2021/07/26 02:11:12;;;;;;;8.50;3.97;;;19.30;92.90;;;;;;5090972;28;20032;-73
2021/07/26 02:13:37;;;;;;;7.30;3.83;;;19.20;92.90;;;;;;5094857;28;20539;-73
2021/07/26 02:16:08;;;;;;;6.35;3.60;;;19.10;93.20;;;;;;5094391;28;20024;-73
2021/07/26 02:18:34;;;;;;;7.70;4.00;;;19.10;93.30;;;;;;5094987;28;20032;-73
2021/07/26 02:20:59;;;;;;;7.05;3.70;;;19.10;93.20;;;;;;5095052;28;20028;-74
2021/07/26 02:23:25;;;;;;;7.05;3.50;;;19.10;93.20;;;;;;5094828;28;20032;-73
2021/07/26 02:25:50;;;;;;;8.30;4.03;;;19.00;93.40;;;;;;5094844;28;20031;-73
2021/07/26 02:28:16;;;;;;;6.95;3.60;;;19.10;93.40;;;;;;5094522;28;20562;-73
2021/07/26 02:30:41;;;;;;;6.75;3.83;;;19.10;93.40;;;;;;5093648;28;20031;-73
2021/07/26 02:33:07;;;;;;;7.07;3.55;;;19.10;93.40;;;;;;5094677;28;20099;-73
2021/07/26 02:35:32;;;;;;;7.25;3.53;;;19.10;93.40;;;;;;5094763;28;20046;-73
2021/07/26 02:37:58;;;;;;;7.38;3.50;;;18.90;93.70;;;;;;5094531;28;20024;-74
2021/07/26 02:40:25;;;;;;;6.57;3.88;;;19.00;93.50;;;;;;5094501;28;20366;-73
2021/07/26 02:42:51;;;;;;;8.98;4.13;;;18.90;93.60;;;;;;5094269;28;20027;-74
2021/07/26 02:45:16;;;;;;;7.25;4.03;;;18.80;93.80;;;;;;5094511;28;20016;-74
2021/07/26 02:47:42;;;;;;;7.45;3.90;;;18.50;94.00;;;;;;5094734;28;20386;-73
2021/07/26 02:50:08;;;;;;;10.05;4.00;;;18.00;95.20;;;;;;5094032;28;20114;-73
2021/07/26 02:52:34;;;;;;;7.63;3.85;;;17.80;95.70;;;;;;5093352;28;20447;-73
2021/07/26 02:55:00;;;;;;;7.15;3.88;;;17.80;95.60;;;;;;5093062;28;20024;-73
2021/07/26 02:57:25;;;;;;;8.57;4.25;;;18.00;95.60;;;;;;5093152;28;20031;-72
2021/07/26 02:59:51;;;;;;;8.20;4.40;;;17.90;96.10;;;;;;5094203;28;20107;-73
2021/07/26 03:02:16;;;;;;;6.30;4.10;;;18.00;96.30;;;;;;5091674;28;20103;-73
2021/07/26 03:04:42;;;;;;;7.00;4.38;;;17.90;96.80;;;;;;5092787;28;20393;-73
2021/07/26 03:07:07;;;;;;;7.53;4.28;;;18.00;96.30;;;;;;5093879;28;20028;-73
2021/07/26 03:09:33;;;;;;;8.35;4.80;;;18.00;96.50;;;;;;5094078;28;20039;-73
2021/07/26 03:11:58;;;;;;;6.68;3.90;;;18.10;96.20;;;;;;5094291;28;20050;-74
2021/07/26 03:14:24;;;;;;;8.57;4.47;;;18.20;95.90;;;;;;5093447;28;20060;-73
2021/07/26 03:16:49;;;;;;;7.65;4.38;;;18.20;95.70;;;;;;5093868;28;20024;-73
2021/07/26 03:19:15;;;;;;;7.55;3.88;;;18.30;95.20;;;;;;5093787;28;20050;-73
2021/07/26 03:21:40;;;;;;;7.47;4.10;;;18.30;95.00;;;;;;5093935;28;20027;-74
2021/07/26 03:24:06;;;;;;;8.63;4.10;;;18.20;95.10;;;;;;5093786;28;20389;-73
2021/07/26 03:26:31;;;;;;;7.10;4.10;;;18.20;95.20;;;;;;5092108;28;20060;-74
2021/07/26 03:28:57;;;;;;;6.72;3.60;;;18.30;95.20;;;;;;5092228;28;20497;-73
2021/07/26 03:31:23;;;;;;;10.00;4.00;;;18.30;94.60;;;;;;5093615;28;20032;-73
2021/07/26 03:33:48;;;;;;;7.32;3.40;;;18.30;94.60;;;;;;5087115;28;20027;-73
2021/07/26 03:36:17;;;;;;;8.55;3.72;;;18.40;94.40;;;;;;5092153;28;20025;-73
2021/07/26 03:38:43;;;;;;;8.70;3.88;;;18.30;94.00;;;;;;5093354;28;20028;-73
2021/07/26 03:41:08;;;;;;;5.82;3.30;;;18.30;94.20;;;;;;5093196;28;20032;-73
2021/07/26 03:43:34;;;;;;;7.72;4.00;;;18.30;94.20;;;;;;5093092;28;20035;-73
2021/07/26 03:45:59;;;;;;;7.63;3.58;;;18.30;94.20;;;;;;5091750;28;20397;-73
2021/07/26 03:48:25;;;;;;;6.95;3.30;;;18.40;93.70;;;;;;5092249;28;20020;-75
2021/07/26 03:50:50;;;;;;;8.52;3.45;;;18.40;93.70;;;;;;5093137;28;20031;-73
2021/07/26 03:53:17;;;;;;;9.30;3.50;;;18.50;93.70;;;;;;5092189;28;20538;-73
2021/07/26 03:55:43;;;;;;;5.93;3.15;;;18.50;93.40;;;;;;5092644;28;20034;-73
2021/07/26 03:58:08;;;;;;;6.88;3.13;;;18.70;93.10;;;;;;5092814;28;20043;-74
2021/07/26 04:00:34;;;;;;;8.18;3.58;;;18.60;93.20;;;;;;5091844;28;20078;-74
2021/07/26 04:03:10;;;;;;;7.75;3.58;;;18.60;93.20;;;;;;5092082;28;20028;-74
2021/07/26 04:08:15;;;;;;;6.25;3.38;;;18.60;93.20;;;;;;5092872;28;20113;-75
2021/07/26 04:10:44;;;;;;;8.25;3.42;;;18.60;93.10;;;;;;5090006;28;20032;-74
2021/07/26 04:13:10;;;;;;;14.55;4.43;;;18.50;93.30;;;;;;5086191;28;20512;-75
2021/07/26 04:15:35;;;;;;;7.72;3.42;;;18.50;93.30;;;;;;5078372;28;20131;-74
2021/07/26 04:18:01;;;;;;;6.90;3.30;;;18.40;93.60;;;;;;5076931;28;20547;-72
2021/07/26 04:20:28;;;;;;;6.55;2.80;;;18.40;93.70;;;;;;5083660;28;20039;-72
2021/07/26 04:22:53;;;;;;;7.55;3.40;;;18.40;93.70;;;;;;5085635;28;20111;-72
2021/07/26 04:25:19;;;;;;;8.88;3.20;;;18.40;93.60;;;;;;5065702;28;20028;-72
2021/07/26 04:27:44;;;;;;;6.35;3.40;;;18.50;93.30;;;;;;5086108;28;20036;-72
2021/07/26 04:30:10;;;;;;;6.95;3.55;;;18.50;93.40;;;;;;5085648;28;20036;-71
2021/07/26 04:32:40;;;;;;;5.95;3.10;;;18.50;93.50;;;;;;5075776;28;20036;-73
2021/07/26 04:35:07;;;;;;;7.38;3.28;;;18.50;93.50;;;;;;5076289;28;20036;-71
2021/07/26 04:37:33;;;;;;;6.40;3.53;;;18.50;93.40;;;;;;5075517;28;20024;-72
2021/07/26 04:39:58;;;;;;;7.03;3.08;;;18.50;93.50;;;;;;5083682;28;20031;-72
2021/07/26 04:42:24;;;;;;;6.82;3.40;;;18.60;93.20;;;;;;5085581;28;20487;-71
2021/07/26 04:44:49;;;;;;;5.82;3.10;;;18.70;93.20;;;;;;5084572;28;20543;-73
2021/07/26 04:47:15;;;;;;;6.30;3.20;;;18.60;93.50;;;;;;5084407;28;20036;-72
2021/07/26 04:49:40;;;;;;;8.52;3.42;;;18.60;93.50;;;;;;5086555;28;20460;-71
2021/07/26 04:52:06;;;;;;;6.80;3.50;;;18.70;93.00;;;;;;5073866;28;20501;-72
2021/07/26 04:54:31;;;;;;;6.22;3.10;;;18.70;94.10;;;;;;5085496;28;20499;-71
2021/07/26 04:56:57;;;;;;;9.02;3.35;;;18.60;94.30;;;;;;5086478;28;20097;-68
2021/07/26 04:59:23;;;;;;;6.43;3.45;;;18.50;94.60;;;;;;5085336;28;20031;-69
2021/07/26 05:01:48;;;;;;;6.13;3.40;;;18.60;95.70;;;;;;5084613;28;20103;-70
2021/07/26 05:04:13;;;;;;;6.97;3.40;;;18.80;95.90;;;;;;5070788;28;20494;-70
2021/07/26 05:06:39;;;;;;;6.60;3.40;;;18.90;95.00;;;;;;5082785;28;20060;-69
2021/07/26 05:09:05;;;;;;;6.35;3.47;;;19.00;94.90;;;;;;5079010;28;20051;-70
2021/07/26 05:11:30;;;;;;;6.85;3.20;;;19.20;94.90;;;;;;5066717;28;20426;-69
2021/07/26 05:13:56;;;;;;;6.57;3.67;;;19.30;94.80;;;;;;5076938;28;20077;-68
2021/07/26 05:16:21;;;;;;;6.65;3.67;;;19.30;93.90;;;;;;5083646;28;20458;-70
2021/07/26 05:18:52;;;;;;;7.65;3.28;;;19.50;94.10;;;;;;5086206;28;20032;-72
2021/07/26 05:21:17;;;;;;;9.48;3.45;;;19.70;93.70;;;;;;5085775;28;20627;-75
2021/07/26 05:23:43;;;;;;;9.30;3.22;;;19.80;93.30;;;;;;5083864;28;20028;-70
2021/07/26 05:26:08;;;;;;;7.55;3.33;;;19.80;92.80;;;;;;5084624;28;20102;-69
2021/07/26 05:28:34;;;;;;;6.65;3.25;;;19.90;93.20;;;;;;5084845;28;20078;-70
2021/07/26 05:30:59;;;;;;;6.13;3.38;;;20.10;92.70;;;;;;5084954;28;20347;-70
2021/07/26 05:33:25;;;;;;;7.57;3.50;;;20.20;92.70;;;;;;5085421;28;20448;-70
2021/07/26 05:35:50;;;;;;;6.43;3.00;;;20.20;92.90;;;;;;5083798;28;20281;-70
2021/07/26 05:38:16;;;;;;;7.65;3.58;;;20.30;93.00;;;;;;5068085;28;20024;-71
2021/07/26 05:40:42;;;;;;;6.95;3.33;;;20.30;91.60;;;;;;5076102;28;20094;-71
2021/07/26 05:43:10;;;;;;;7.30;3.17;;;20.50;91.80;;;;;;5072285;28;20119;-71
2021/07/26 05:45:37;;;;;;;7.78;3.47;;;20.40;91.40;;;;;;5076167;28;20076;-70
2021/07/26 05:48:03;;;;;;;6.05;3.33;;;20.60;90.90;;;;;;5075013;28;20113;-73
2021/07/26 05:50:28;;;;;;;6.07;2.72;;;20.70;91.50;;;;;;5073016;28;20063;-71
2021/07/26 05:52:54;;;;;;;6.05;3.00;;;20.80;89.50;;;;;;5073971;28;20039;-72
2021/07/26 05:55:19;;;;;;;6.85;3.10;;;20.90;88.10;;;;;;5085403;28;20062;-71
2021/07/26 05:57:46;;;;;;;7.30;3.08;;;21.00;88.30;;;;;;5081042;28;20548;-73
2021/07/26 06:00:15;;;;;;;6.63;3.00;;;21.00;87.90;;;;;;5068909;28;20062;-71
2021/07/26 06:02:41;;;;;;;5.75;2.92;;;21.00;86.50;;;;;;5069750;22;20037;-67
2021/07/26 06:05:07;;;;;;;7.10;3.30;;;21.00;87.00;;;;;;5049142;28;20017;-67
2021/07/26 06:07:32;;;;;;;7.45;2.97;;;21.00;86.50;;;;;;5032149;28;20129;-67
2021/07/26 06:09:58;;;;;;;5.47;2.95;;;21.20;85.80;;;;;;5050012;28;20031;-67
2021/07/26 06:12:23;;;;;;;6.05;2.72;;;21.40;83.80;;;;;;5039558;28;20029;-67
2021/07/26 06:14:49;;;;;;;5.30;2.45;;;21.40;83.70;;;;;;5048483;28;20021;-68
2021/07/26 06:17:16;;;;;;;6.13;2.88;;;21.50;84.30;;;;;;5050239;28;20073;-68
2021/07/26 06:19:42;;;;;;;6.10;2.67;;;21.50;83.00;;;;;;5049845;28;20025;-67
2021/07/26 06:22:07;;;;;;;5.53;2.67;;;21.40;84.20;;;;;;5050973;28;20027;-67
2021/07/26 06:24:33;;;;;;;6.88;2.78;;;21.40;83.50;;;;;;5051227;28;20029;-67
2021/07/26 06:26:59;;;;;;;5.07;2.60;;;21.20;82.70;;;;;;5051477;28;20029;-67
2021/07/26 06:29:25;;;;;;;6.13;2.65;;;21.40;83.40;;;;;;5051451;28;20526;-67
2021/07/26 06:31:51;;;;;;;5.38;2.55;;;21.50;83.10;;;;;;5051009;28;20048;-67
2021/07/26 06:34:16;;;;;;;6.88;3.13;;;21.60;82.80;;;;;;5049526;28;20490;-67
2021/07/26 06:36:42;;;;;;;5.65;2.83;;;21.50;82.00;;;;;;5050251;28;20029;-68
2021/07/26 06:39:09;;;;;;;6.45;2.70;;;21.70;82.00;;;;;;5054593;28;20028;-67
2021/07/26 06:41:35;;;;;;;6.10;3.03;;;21.90;82.60;;;;;;5054531;28;20025;-67
2021/07/26 06:44:00;;;;;;;6.20;2.90;;;22.10;79.00;;;;;;5053259;28;20497;-68
2021/07/26 06:46:26;;;;;;;6.05;2.65;;;22.10;79.70;;;;;;5052959;28;20031;-68
2021/07/26 06:48:52;;;;;;;7.00;2.83;;;22.40;78.50;;;;;;5054505;28;20029;-67
2021/07/26 06:51:18;;;;;;;4.97;2.60;;;22.50;78.20;;;;;;5054374;28;20035;-68
2021/07/26 06:53:44;;;;;;;6.50;2.95;;;22.70;77.70;;;;;;5053125;28;20509;-68
2021/07/26 06:56:10;;;;;;;5.28;2.78;;;23.10;76.10;;;;;;5053867;28;20032;-68
2021/07/26 06:58:37;;;;;;;4.43;2.30;;;23.10;74.90;;;;;;5053004;28;20029;-67
2021/07/26 07:01:04;;;;;;;5.97;2.75;;;23.10;75.80;;;;;;5054388;28;20025;-67
2021/07/26 07:03:30;;;;;;;5.70;2.60;;;23.30;74.20;;;;;;5054173;28;20068;-67
2021/07/26 07:06:06;;;;;;;5.22;2.60;;;23.30;74.50;;;;;;5052551;28;20052;-67
2021/07/26 07:08:32;;;;;;;5.18;2.47;;;23.50;73.80;;;;;;5054045;28;20096;-67
2021/07/26 07:11:09;;;;;;;6.60;2.33;;;23.70;72.80;;;;;;5054410;28;20060;-68
2021/07/26 07:13:36;;;;;;;5.75;2.45;;;23.70;70.80;;;;;;5054123;28;20398;-67
2021/07/26 07:16:07;;;;;;;5.43;2.67;;;23.80;72.70;;;;;;5053728;28;20058;-67
2021/07/26 07:18:32;;;;;;;4.72;2.50;;;23.80;71.40;;;;;;5054108;28;20025;-67
2021/07/26 07:20:58;;;;;;;5.75;2.75;;;23.80;71.60;;;;;;5052597;28;20025;-67
2021/07/26 07:23:23;;;;;;;5.45;2.60;;;24.00;71.50;;;;;;5052463;28;20474;-68
2021/07/26 07:25:49;;;;;;;5.53;2.67;;;23.90;71.40;;;;;;5053477;28;20368;-68
2021/07/26 07:28:14;;;;;;;4.95;2.50;;;24.10;71.10;;;;;;5053712;28;20064;-67
2021/07/26 07:30:40;;;;;;;8.25;2.60;;;24.10;70.50;;;;;;5053732;28;20078;-67
2021/07/26 07:33:05;;;;;;;5.90;2.40;;;24.30;69.70;;;;;;5052201;28;20052;-68
2021/07/26 07:35:32;;;;;;;4.82;2.20;;;24.60;68.80;;;;;;5053239;28;20387;-67
2021/07/26 07:37:57;;;;;;;5.05;2.33;;;24.80;67.90;;;;;;5052295;28;20025;-68
2021/07/26 07:40:23;;;;;;;5.03;2.47;;;25.00;67.20;;;;;;5053489;28;20028;-68
2021/07/26 07:42:49;;;;;;;5.60;2.67;;;25.10;67.10;;;;;;5053459;28;20433;-68
2021/07/26 07:45:15;;;;;;;5.55;2.50;;;25.10;66.90;;;;;;5052201;28;20031;-68
2021/07/26 07:47:40;;;;;;;5.40;2.60;;;25.20;65.30;;;;;;5053223;28;20478;-68
2021/07/26 07:50:07;;;;;;;5.68;2.28;;;25.20;65.90;;;;;;5052812;28;20131;-69
2021/07/26 07:52:34;;;;;;;5.47;2.20;;;25.30;65.90;;;;;;5053123;28;20120;-68
2021/07/26 07:55:00;;;;;;;4.30;2.00;;;25.30;65.50;;;;;;5051620;28;20059;-68
2021/07/26 07:57:28;;;;;;;5.20;2.45;;;25.50;64.80;;;;;;5053075;28;20035;-68
2021/07/26 07:59:55;;;;;;;4.65;2.17;;;25.50;65.70;;;;;;5053150;28;20082;-68
2021/07/26 08:02:20;;;;;;;4.90;2.30;;;24.80;67.10;;;;;;5051523;28;20064;-68
2021/07/26 08:04:46;;;;;;;6.13;2.50;;;25.40;65.20;;;;;;5051562;28;20044;-68
2021/07/26 08:07:11;;;;;;;5.50;2.38;;;25.30;65.20;;;;;;5051734;28;20052;-68
2021/07/26 08:09:37;;;;;;;5.07;2.20;;;25.40;65.20;;;;;;5052889;28;20028;-68
2021/07/26 08:12:03;;;;;;;6.50;2.50;;;25.70;64.80;;;;;;5052613;28;20542;-68
2021/07/26 08:14:28;;;;;;;4.57;2.22;;;25.80;63.80;;;;;;5052420;28;20033;-70
2021/07/26 08:16:59;;;;;;;3.78;2.08;;;26.20;62.80;;;;;;5052765;28;20032;-67
2021/07/26 08:19:24;;;;;;;6.78;2.42;;;26.00;63.70;;;;;;5052854;28;20068;-68
2021/07/26 08:21:50;;;;;;;4.85;2.50;;;25.90;64.20;;;;;;5052648;28;20060;-67
2021/07/26 08:24:15;;;;;;;4.65;2.20;;;25.40;65.50;;;;;;5052468;28;20079;-66
2021/07/26 08:26:41;;;;;;;5.53;2.25;;;25.80;63.90;;;;;;5052397;28;20028;-67
2021/07/26 08:29:06;;;;;;;5.65;2.38;;;24.80;67.90;;;;;;5052466;28;20406;-68
2021/07/26 08:31:32;;;;;;;4.35;2.33;;;25.50;65.80;;;;;;5051083;28;20068;-67
2021/07/26 08:33:57;;;;;;;4.95;2.40;;;25.50;65.10;;;;;;5052667;28;20491;-68
2021/07/26 08:36:23;;;;;;;3.95;2.22;;;25.30;65.50;;;;;;5050826;28;20025;-67
2021/07/26 08:38:48;;;;;;;6.13;2.50;;;25.60;63.70;;;;;;5051065;28;20017;-67
2021/07/26 08:41:15;;;;;;;6.03;2.58;;;26.00;63.10;;;;;;5050953;28;20025;-68
2021/07/26 08:43:41;;;;;;;5.53;2.40;;;26.20;61.80;;;;;;5052468;28;20132;-68
2021/07/26 08:46:08;;;;;;;6.18;2.20;;;26.30;62.20;;;;;;5052017;28;20092;-68
2021/07/26 08:48:35;;;;;;;6.05;2.17;;;26.60;60.40;;;;;;5050893;28;20029;-67
2021/07/26 08:51:02;;;;;;;5.88;2.15;;;26.50;59.10;;;;;;5050942;28;20033;-66
2021/07/26 08:53:29;;;;;;;4.55;2.17;;;26.40;58.40;;;;;;5052010;28;20025;-66
2021/07/26 08:55:54;;;;;;;5.35;2.53;;;26.60;58.80;;;;;;5050800;28;20107;-70
2021/07/26 08:58:20;;;;;;;3.85;1.70;;;26.00;62.10;;;;;;5050637;28;20549;-70
2021/07/26 09:00:46;;;;;;;4.00;2.03;;;25.10;65.50;;;;;;5051210;28;20025;-68
2021/07/26 09:03:11;;;;;;;6.53;2.22;;;24.90;66.10;;;;;;5051841;28;20063;-68
2021/07/26 09:05:37;;;;;;;6.90;2.28;;;25.20;66.20;;;;;;5051672;28;20441;-68
2021/07/26 09:08:03;;;;;;;3.97;1.90;;;26.60;60.10;;;;;;5051948;28;20025;-68
2021/07/26 09:10:33;;;;;;;6.35;2.30;;;27.00;58.10;;;;;;5050226;28;20075;-67
2021/07/26 09:12:59;;;;;;;7.22;2.20;;;27.00;57.90;;;;;;5050492;28;20029;-68
2021/07/26 09:15:24;;;;;;;6.57;2.30;;;27.10;57.90;;;;;;5051516;28;20098;-68
2021/07/26 09:17:50;;;;;;;5.03;2.30;;;27.30;57.50;;;;;;5051695;28;20057;-68
2021/07/26 09:20:16;;;;;;;5.70;2.30;;;27.50;56.30;;;;;;5051768;28;20107;-67
2021/07/26 09:22:43;;;;;;;5.70;2.42;;;27.50;57.50;;;;;;5050291;28;20502;-67
2021/07/26 09:25:35;;;;;;;4.63;2.20;;;27.40;57.10;;;;;;5050095;28;20025;-67
2021/07/26 09:28:02;;;;;;;5.47;2.42;;;27.50;56.80;;;;;;5047847;28;20453;-68
2021/07/26 09:30:54;;;;;;;4.90;2.42;;;27.50;57.30;;;;;;5051642;28;20086;-68
2021/07/26 09:33:23;;;;;;;7.38;3.13;;;27.60;56.80;;;;;;5040960;28;20068;-67
2021/07/26 09:36:07;;;;;;;5.70;2.50;;;27.60;57.30;;;;;;5051239;28;20036;-67
2021/07/26 09:38:33;;;;;;;6.35;2.72;;;27.20;58.40;;;;;;5051398;28;20070;-68
2021/07/26 09:41:00;;;;;;;4.90;2.70;;;27.30;58.00;;;;;;5049618;28;20028;-67
2021/07/26 09:43:26;;;;;;;6.43;2.58;;;26.80;59.50;;;;;;5044715;28;20101;-66
2021/07/26 09:45:54;;;;;;;6.50;2.88;;;25.90;63.10;;;;;;5047792;28;20586;-68
2021/07/26 09:48:30;;;;;;;5.93;2.70;;;26.60;61.20;;;;;;5035602;28;20021;-68
2021/07/26 09:50:57;;;;;;;5.35;2.58;;;26.20;61.90;;;;;;5031349;28;20025;-65
2021/07/26 09:53:28;;;;;;;5.65;2.53;;;25.40;64.40;;;;;;5040448;28;20021;-66
2021/07/26 09:55:57;;;;;;;5.45;2.80;;;25.50;64.50;;;;;;5043057;28;20021;-66
2021/07/26 09:58:42;;;;;;;5.68;2.20;;;25.40;65.00;;;;;;5045759;28;20030;-68
2021/07/26 10:01:09;;;;;;;6.18;2.20;;;24.90;66.60;;;;;;5031354;28;20056;-67
2021/07/26 10:03:39;;;;;;;12.90;2.90;;;24.30;69.50;;;;;;5029999;28;20116;-66
2021/07/26 10:06:06;;;;;;;6.05;2.72;;;24.20;69.70;;;;;;5035148;28;20029;-66
2021/07/26 10:08:32;;;;;;;8.32;3.15;;;24.70;68.40;;;;;;5044312;28;20025;-67
2021/07/26 10:10:58;;;;;;;10.05;3.83;;;25.10;67.40;;;;;;5030521;28;20088;-67
2021/07/26 10:13:24;;;;;;;6.55;2.20;;;25.30;66.30;;;;;;5034144;28;20021;-67
2021/07/26 10:15:50;;;;;;;5.85;2.75;;;25.10;66.90;;;;;;5032856;28;20055;-66
2021/07/26 10:18:16;;;;;;;5.93;3.10;;;24.90;68.10;;;;;;5033459;28;20032;-68
2021/07/26 10:20:48;;;;;;;5.72;2.78;;;24.80;69.70;;;;;;5035050;28;20033;-68
2021/07/26 10:23:28;;;;;;;5.45;3.17;;;25.40;67.70;;;;;;5034053;28;20426;-67
2021/07/26 10:26:00;;;;;;;5.50;3.05;;;25.70;65.40;;;;;;5034712;28;20021;-68
2021/07/26 10:28:30;;;;;;;6.13;2.58;;;26.30;63.70;;;;;;5034982;28;20029;-68
2021/07/26 10:30:56;;;;;;;7.30;2.75;;;26.10;64.00;;;;;;5034951;28;20052;-67
2021/07/26 10:33:23;;;;;;;6.65;3.00;;;25.90;64.20;;;;;;5033572;28;20137;-67
2021/07/26 10:35:55;;;;;;;7.20;2.88;;;25.30;66.20;;;;;;5034500;28;20037;-68
2021/07/26 10:38:43;;;;;;;8.88;2.85;;;25.00;67.60;;;;;;5033336;28;20399;-67
2021/07/26 10:41:08;;;;;;;5.78;2.88;;;25.10;68.70;;;;;;5033320;28;20045;-67
2021/07/26 10:43:58;;;;;;;5.28;2.55;;;25.50;66.80;;;;;;5034706;28;20036;-68
2021/07/26 10:46:23;;;;;;;6.18;2.92;;;24.80;68.80;;;;;;5034441;28;20078;-68
2021/07/26 10:48:50;;;;;;;5.13;2.63;;;25.00;69.30;;;;;;5033189;28;20487;-68
2021/07/26 10:51:39;;;;;;;5.50;2.70;;;25.20;69.80;;;;;;5034589;28;20103;-68
2021/07/26 10:54:07;;;;;;;5.55;2.60;;;25.10;68.50;;;;;;5033385;28;20438;-68
2021/07/26 10:57:09;;;;;;;5.07;2.70;;;24.50;71.30;;;;;;5034144;28;20037;-68
2021/07/26 11:00:24;;;;;;;6.70;2.70;;;24.60;70.80;;;;;;5034393;28;20087;-67
2021/07/26 11:02:50;;;;;;;4.85;2.47;;;25.30;68.80;;;;;;5017489;28;20037;-68
2021/07/26 11:05:28;;;;;;;7.70;2.97;;;25.70;67.10;;;;;;5032809;28;20027;-68
2021/07/26 11:08:12;;;;;;;4.88;2.40;;;25.00;70.20;;;;;;5034164;28;20502;-68
2021/07/26 11:11:03;;;;;;;4.70;2.53;;;24.20;72.10;;;;;;5034170;28;20029;-68
2021/07/26 11:13:45;;;;;;;6.78;2.60;;;24.20;73.00;;;;;;5030201;28;20033;-68
2021/07/26 11:16:11;;;;;;;6.18;2.47;;;25.60;67.80;;;;;;5033322;28;20071;-67
2021/07/26 11:18:42;;;;;;;4.97;2.53;;;25.50;67.80;;;;;;5032665;28;20434;-68
2021/07/26 11:21:09;;;;;;;6.38;2.63;;;26.30;63.60;;;;;;5033912;28;20028;-67
2021/07/26 11:23:55;;;;;;;5.72;2.80;;;26.40;63.30;;;;;;5033047;28;20049;-68
2021/07/26 11:26:28;;;;;;;6.70;2.88;;;26.80;62.10;;;;;;5033155;28;20044;-68
2021/07/26 11:29:03;;;;;;;7.55;2.70;;;27.00;61.40;;;;;;5033807;28;20017;-68
2021/07/26 11:31:38;;;;;;;4.45;2.30;;;26.60;63.30;;;;;;5033720;28;20108;-68
2021/07/26 11:34:08;;;;;;;4.53;2.30;;;27.00;61.40;;;;;;5033734;28;20018;-68
2021/07/26 11:36:34;;;;;;;6.47;2.80;;;26.50;63.40;;;;;;5032095;28;20079;-68
2021/07/26 11:39:07;;;;;;;5.00;2.60;;;26.50;62.60;;;;;;5033636;28;20033;-67
2021/07/26 11:41:34;;;;;;;5.85;2.67;;;25.30;66.50;;;;;;5033606;28;20025;-67
2021/07/26 11:43:59;;;;;;;4.93;2.65;;;25.40;65.80;;;;;;5033574;28;20046;-68
2021/07/26 11:46:28;;;;;;;4.85;2.55;;;26.60;61.50;;;;;;5031989;28;20483;-68
2021/07/26 11:48:59;;;;;;;5.30;2.55;;;26.30;61.90;;;;;;5032065;28;20025;-67
2021/07/26 11:51:32;;;;;;;6.40;2.90;;;25.80;63.50;;;;;;5033386;28;20022;-67
2021/07/26 11:54:03;;;;;;;5.78;2.80;;;26.30;63.00;;;;;;5033358;28;20030;-67
2021/07/26 11:56:29;;;;;;;;;;;26.70;61.00;;;;;;5033497;28;20026;-67
2021/07/26 11:59:14;;;;;;;4.88;2.38;;;26.80;62.00;;;;;;5033263;28;19927;-68
2021/07/26 12:01:53;;;;;;;5.43;2.53;;;27.00;58.00;;;;;;5034056;28;20033;-69
2021/07/26 12:04:20;;;;;;;4.32;2.20;;;27.00;58.60;;;;;;5031756;28;20384;-67
2021/07/26 12:06:49;;;;;;;5.15;2.00;;;27.10;57.90;;;;;;5031792;28;20084;-67
2021/07/26 12:09:18;;;;;;;4.53;2.42;;;27.30;57.90;;;;;;5031811;28;20045;-68
2021/07/26 12:11:44;;;;;;;6.00;2.70;;;26.40;60.10;;;;;;5031596;28;20071;-68
2021/07/26 12:14:25;;;;;;;4.95;2.45;;;26.20;61.10;;;;;;5031675;28;20022;-68
2021/07/26 12:17:02;;;;;;;5.28;2.33;;;25.30;64.00;;;;;;5032353;28;20026;-68
2021/07/26 12:19:28;;;;;;;4.85;2.38;;;25.60;63.80;;;;;;5031636;28;20025;-67
2021/07/26 12:21:55;;;;;;;6.43;2.58;;;24.80;66.10;;;;;;5031451;28;20021;-67
2021/07/26 12:24:58;;;;;;;4.72;2.17;;;24.40;67.80;;;;;;5031276;28;20091;-66
2021/07/26 12:27:35;;;;;;;6.05;2.28;;;25.40;64.60;;;;;;5033106;28;20025;-67
2021/07/26 12:30:10;;;;;;;5.18;2.25;;;26.30;59.10;;;;;;5031350;28;20391;-67
2021/07/26 12:32:50;;;;;;;3.45;1.80;;;26.30;60.20;;;;;;5032554;28;20029;-67
2021/07/26 12:35:22;;;;;;;4.45;2.03;;;26.40;58.50;;;;;;5030942;28;20124;-68
2021/07/26 12:38:05;;;;;;;3.30;1.60;;;26.80;58.20;;;;;;5031226;28;20506;-67
2021/07/26 12:40:32;;;;;;;3.55;1.70;;;26.80;55.60;;;;;;5032451;28;20557;-67
2021/07/26 12:43:11;;;;;;;4.10;1.88;;;26.90;55.10;;;;;;5032391;28;20021;-67
2021/07/26 12:45:38;;;;;;;4.45;1.90;;;26.90;55.90;;;;;;5032153;28;20022;-67
2021/07/26 12:48:16;;;;;;;5.28;2.00;;;26.00;59.60;;;;;;5031160;28;20395;-69
2021/07/26 12:50:43;;;;;;;4.45;1.92;;;26.40;56.80;;;;;;5032334;28;20029;-67
2021/07/26 12:53:10;;;;;;;3.80;1.70;;;26.60;56.50;;;;;;5032109;28;20033;-67
2021/07/26 12:55:36;;;;;;;3.63;1.80;;;26.70;56.10;;;;;;5030989;28;20407;-67